Time;durP1;ratioP1;P1;durP2;ratioP2;P2;SDS_P1;SDS_P2;PMS_P1;PMS_P2;Temp;Humidity;BMP_temperature;BMP_pressure;BME280_temperature;BME280_humidity;BME280_pressure;Samples;Min_cycle;Max_cycle;Signal;HPM_P1;HPM_P2
2023/06/08 00:02:14;;;;;;;2.13;2.00;;;22.90;48.10;;;;;;5056547;28;20721;-81
2023/06/08 00:04:41;;;;;;;2.22;2.03;;;22.80;48.30;;;;;;5057012;28;20222;-81
2023/06/08 00:07:10;;;;;;;2.05;1.95;;;22.80;48.40;;;;;;5057009;28;20219;-81
2023/06/08 00:09:38;;;;;;;1.90;1.80;;;22.80;48.50;;;;;;5057740;28;20290;-81
2023/06/08 00:12:05;;;;;;;2.33;2.13;;;22.80;48.50;;;;;;5056608;28;20211;-81
2023/06/08 00:14:34;;;;;;;2.13;1.98;;;22.80;48.50;;;;;;5056459;28;20717;-81
2023/06/08 00:17:03;;;;;;;2.20;2.00;;;22.80;48.50;;;;;;5056482;28;20195;-81
2023/06/08 00:19:30;;;;;;;2.10;2.00;;;22.70;48.50;;;;;;5039538;28;20195;-81
2023/06/08 00:21:58;;;;;;;2.50;2.30;;;22.70;48.50;;;;;;5058012;28;20204;-81
2023/06/08 00:24:26;;;;;;;2.30;2.10;;;22.70;48.60;;;;;;5056212;28;20215;-82
2023/06/08 00:26:53;;;;;;;2.17;1.98;;;22.70;48.60;;;;;;5055655;28;20276;-82
2023/06/08 00:29:21;;;;;;;2.22;2.08;;;22.70;48.70;;;;;;5056891;28;20245;-82
2023/06/08 00:31:48;;;;;;;2.10;1.90;;;22.60;48.60;;;;;;5055406;28;20689;-82
2023/06/08 00:34:17;;;;;;;2.03;1.92;;;22.70;48.70;;;;;;5039631;28;20296;-82
2023/06/08 00:36:44;;;;;;;2.10;2.00;;;22.60;48.70;;;;;;5054997;28;20199;-82
2023/06/08 00:39:14;;;;;;;2.20;2.00;;;22.60;48.70;;;;;;5055193;28;20200;-82
2023/06/08 00:41:43;;;;;;;2.00;1.90;;;22.60;48.70;;;;;;5054294;28;20721;-81
2023/06/08 00:44:10;;;;;;;2.33;2.13;;;22.50;48.70;;;;;;5037538;28;20735;-81
2023/06/08 00:46:38;;;;;;;2.35;2.15;;;22.60;48.80;;;;;;5053976;28;20301;-81
2023/06/08 00:49:05;;;;;;;2.13;1.92;;;22.50;48.70;;;;;;5054048;28;20223;-81
2023/06/08 00:51:36;;;;;;;2.00;1.90;;;22.50;48.80;;;;;;5053865;28;20226;-81
2023/06/08 00:54:04;;;;;;;2.30;2.20;;;22.50;48.80;;;;;;5053636;28;20201;-81
2023/06/08 00:56:32;;;;;;;2.00;1.90;;;22.50;48.90;;;;;;5052218;28;20206;-82
2023/06/08 00:59:00;;;;;;;2.30;2.10;;;22.50;48.90;;;;;;5055758;28;20191;-82
2023/06/08 01:01:29;;;;;;;2.50;2.30;;;22.50;48.90;;;;;;5055469;28;20226;-82
2023/06/08 01:04:05;;;;;;;2.38;2.17;;;22.50;48.90;;;;;;5055253;28;20550;-81
2023/06/08 01:06:35;;;;;;;2.22;1.92;;;22.50;49.00;;;;;;5055081;28;20537;-82
2023/06/08 01:09:09;;;;;;;2.40;2.20;;;22.50;49.00;;;;;;5056234;28;20208;-82
2023/06/08 01:11:42;;;;;;;2.60;2.40;;;22.40;48.90;;;;;;5064899;28;20249;-82
2023/06/08 01:14:16;;;;;;;2.50;2.30;;;22.40;49.00;;;;;;5053591;28;20195;-82
2023/06/08 01:16:49;;;;;;;2.03;1.90;;;22.40;49.10;;;;;;5053197;28;20313;-82
2023/06/08 01:19:23;;;;;;;2.40;2.20;;;22.40;49.10;;;;;;5053511;28;20184;-82
2023/06/08 01:22:01;;;;;;;2.00;1.90;;;22.40;49.10;;;;;;5037895;28;20250;-81
2023/06/08 01:24:30;;;;;;;2.28;2.10;;;22.40;49.10;;;;;;5054182;28;20274;-81
2023/06/08 01:26:59;;;;;;;2.35;2.10;;;22.40;49.70;;;;;;5054631;28;20199;-81
2023/06/08 01:29:27;;;;;;;2.08;1.98;;;22.30;49.10;;;;;;5054295;28;20677;-82
2023/06/08 01:31:54;;;;;;;2.03;1.92;;;22.40;49.20;;;;;;5054532;28;20219;-82
2023/06/08 01:34:22;;;;;;;2.22;2.13;;;22.30;49.10;;;;;;5037970;28;20203;-81
2023/06/08 01:36:53;;;;;;;2.78;2.30;;;22.30;49.10;;;;;;5054335;28;20199;-82
2023/06/08 01:39:23;;;;;;;2.33;2.13;;;22.30;49.20;;;;;;5055255;28;20195;-82
2023/06/08 01:41:54;;;;;;;2.00;1.90;;;22.30;49.10;;;;;;5053582;28;20219;-82
2023/06/08 01:44:20;;;;;;;2.38;2.20;;;22.30;49.10;;;;;;5053718;28;20199;-82
2023/06/08 01:46:50;;;;;;;2.65;2.45;;;22.30;49.20;;;;;;5054409;28;20198;-82
2023/06/08 01:49:17;;;;;;;2.42;1.90;;;22.30;49.20;;;;;;5055175;28;20329;-82
2023/06/08 01:51:46;;;;;;;2.25;2.15;;;22.30;49.10;;;;;;5038225;28;20207;-82
2023/06/08 01:54:15;;;;;;;2.20;2.10;;;22.30;49.20;;;;;;5054492;28;20214;-82
2023/06/08 01:56:42;;;;;;;2.03;1.92;;;22.30;49.20;;;;;;5054753;28;20200;-82
2023/06/08 01:59:11;;;;;;;2.42;2.22;;;22.30;49.20;;;;;;5054249;28;20738;-82
2023/06/08 02:01:38;;;;;;;2.47;2.28;;;22.30;49.20;;;;;;5055315;28;20219;-81
2023/06/08 02:04:06;;;;;;;2.65;2.45;;;22.30;49.20;;;;;;5054473;28;20196;-80
2023/06/08 02:06:33;;;;;;;2.50;2.28;;;22.30;49.20;;;;;;5038640;28;20199;-80
2023/06/08 02:09:00;;;;;;;2.58;2.38;;;22.20;49.10;;;;;;5058539;28;20218;-80
2023/06/08 02:11:27;;;;;;;2.55;2.35;;;22.30;49.30;;;;;;5058757;28;20569;-79
2023/06/08 02:13:54;;;;;;;2.17;2.00;;;22.30;49.30;;;;;;5058317;28;20192;-80
2023/06/08 02:16:23;;;;;;;2.60;2.40;;;22.30;49.30;;;;;;5057687;28;20613;-80
2023/06/08 02:18:51;;;;;;;2.15;2.05;;;22.30;49.30;;;;;;5057963;28;20219;-80
2023/06/08 02:21:20;;;;;;;2.70;2.50;;;22.30;49.30;;;;;;5058123;28;20719;-80
2023/06/08 02:23:48;;;;;;;2.28;2.10;;;22.20;49.20;;;;;;5058570;28;20195;-80
2023/06/08 02:26:16;;;;;;;2.95;2.72;;;22.30;49.30;;;;;;5057537;28;20203;-80
2023/06/08 02:28:43;;;;;;;2.50;2.30;;;22.20;49.30;;;;;;5057076;28;20215;-80
2023/06/08 02:31:12;;;;;;;2.35;2.20;;;22.20;49.30;;;;;;5057867;28;20223;-80
2023/06/08 02:33:41;;;;;;;2.53;2.30;;;22.20;49.30;;;;;;5040462;28;20253;-80
2023/06/08 02:36:09;;;;;;;2.50;2.30;;;22.20;49.30;;;;;;5056339;28;20245;-80
2023/06/08 02:38:38;;;;;;;2.80;2.35;;;22.20;49.30;;;;;;5055977;28;20192;-80
2023/06/08 02:41:07;;;;;;;2.63;2.42;;;22.20;49.30;;;;;;5056356;28;20234;-80
2023/06/08 02:43:38;;;;;;;2.50;2.30;;;22.20;49.30;;;;;;5056551;28;20195;-80
2023/06/08 02:46:04;;;;;;;2.50;2.30;;;22.20;49.40;;;;;;5056132;28;20211;-80
2023/06/08 02:48:32;;;;;;;2.22;2.13;;;22.20;49.30;;;;;;5056143;28;20746;-80
2023/06/08 02:51:01;;;;;;;2.35;2.15;;;22.20;49.30;;;;;;5055883;28;20723;-81
2023/06/08 02:53:28;;;;;;;2.85;2.65;;;22.20;49.40;;;;;;5056593;28;20278;-81
2023/06/08 02:55:55;;;;;;;2.55;2.35;;;22.10;49.30;;;;;;5056229;28;20571;-81
2023/06/08 02:58:26;;;;;;;2.33;2.13;;;22.20;49.40;;;;;;5055882;28;20179;-81
2023/06/08 03:00:55;;;;;;;2.50;2.30;;;22.10;49.40;;;;;;5039049;28;20219;-81
2023/06/08 03:03:31;;;;;;;2.45;2.25;;;22.10;49.40;;;;;;5040659;28;20191;-81
2023/06/08 03:06:07;;;;;;;2.40;2.20;;;22.10;49.40;;;;;;5055409;28;20195;-80
2023/06/08 03:08:39;;;;;;;2.53;2.33;;;22.10;49.40;;;;;;5055358;28;20253;-80
2023/06/08 03:11:08;;;;;;;2.90;2.70;;;22.10;49.50;;;;;;5056068;28;20262;-80
2023/06/08 03:13:38;;;;;;;2.70;2.50;;;22.10;49.40;;;;;;5039722;28;20191;-80
2023/06/08 03:16:05;;;;;;;2.80;2.60;;;22.10;49.40;;;;;;5055248;28;20250;-80
2023/06/08 03:18:34;;;;;;;2.90;2.70;;;22.10;49.40;;;;;;5054532;28;20188;-80
2023/06/08 03:21:01;;;;;;;2.50;2.30;;;22.10;49.40;;;;;;5038941;28;20689;-83
2023/06/08 03:23:34;;;;;;;2.60;2.40;;;22.10;49.40;;;;;;5056275;28;20215;-83
2023/06/08 03:26:04;;;;;;;2.58;2.38;;;22.10;49.20;;;;;;5056551;28;20192;-80
2023/06/08 03:28:31;;;;;;;3.17;2.88;;;22.20;49.30;;;;;;5057553;28;20222;-80
2023/06/08 03:30:58;;;;;;;2.85;2.58;;;22.20;49.10;;;;;;5040635;28;20673;-80
2023/06/08 03:33:33;;;;;;;2.63;2.42;;;22.30;49.20;;;;;;5055751;28;20203;-80
2023/06/08 03:36:03;;;;;;;2.75;2.53;;;22.30;49.10;;;;;;5055942;28;20199;-81
2023/06/08 03:38:41;;;;;;;3.08;2.78;;;22.30;48.90;;;;;;5056299;28;20183;-81
2023/06/08 03:41:13;;;;;;;2.85;2.65;;;22.40;48.90;;;;;;5057221;28;20310;-81
2023/06/08 03:43:40;;;;;;;2.65;2.45;;;22.40;48.70;;;;;;5056557;28;20207;-81
2023/06/08 03:46:07;;;;;;;2.90;2.70;;;22.50;48.70;;;;;;5056441;28;20203;-81
2023/06/08 03:48:35;;;;;;;2.60;2.40;;;22.40;48.60;;;;;;5057135;28;20215;-81
2023/06/08 03:51:04;;;;;;;2.90;2.70;;;22.50;48.50;;;;;;5056841;28;20628;-81
2023/06/08 03:53:32;;;;;;;2.72;2.53;;;22.50;48.40;;;;;;5056452;28;20219;-81
2023/06/08 03:56:00;;;;;;;2.65;2.45;;;22.50;48.40;;;;;;5056296;28;20206;-80
2023/06/08 03:58:27;;;;;;;2.88;2.63;;;22.50;48.30;;;;;;5057204;28;20188;-80
2023/06/08 04:00:56;;;;;;;2.60;2.40;;;22.50;48.30;;;;;;5056420;28;20314;-80
2023/06/08 04:03:24;;;;;;;2.80;2.60;;;22.60;48.30;;;;;;5056286;28;20558;-80
2023/06/08 04:05:52;;;;;;;2.70;2.50;;;22.60;48.30;;;;;;5056154;28;20219;-80
2023/06/08 04:08:21;;;;;;;2.60;2.40;;;22.50;48.20;;;;;;5055983;28;20195;-80
2023/06/08 04:10:49;;;;;;;2.95;2.75;;;22.60;48.20;;;;;;5056226;28;20215;-80
2023/06/08 04:13:17;;;;;;;3.00;2.80;;;22.60;48.20;;;;;;5055631;28;20203;-82
2023/06/08 04:15:45;;;;;;;2.80;2.60;;;22.60;48.20;;;;;;5056199;28;20249;-80
2023/06/08 04:18:13;;;;;;;3.00;2.80;;;22.60;48.10;;;;;;5057273;28;20286;-80
2023/06/08 04:20:41;;;;;;;2.92;2.63;;;22.60;48.00;;;;;;5056005;28;20269;-80
2023/06/08 04:23:11;;;;;;;2.90;2.70;;;22.60;48.00;;;;;;5055876;28;20341;-80
2023/06/08 04:25:39;;;;;;;2.53;2.40;;;22.60;48.00;;;;;;5039887;28;20263;-80
2023/06/08 04:28:06;;;;;;;2.67;2.42;;;22.70;48.00;;;;;;5038029;28;20217;-80
2023/06/08 04:30:35;;;;;;;2.83;2.60;;;22.70;48.00;;;;;;5054335;28;20317;-80
2023/06/08 04:33:02;;;;;;;2.80;2.60;;;22.70;48.00;;;;;;5062027;28;20199;-81
2023/06/08 04:35:37;;;;;;;2.80;2.60;;;22.70;47.90;;;;;;5071524;28;20222;-81
2023/06/08 04:38:14;;;;;;;2.80;2.60;;;22.70;47.90;;;;;;5071080;28;20195;-81
2023/06/08 04:40:45;;;;;;;2.88;2.67;;;22.70;47.90;;;;;;5070367;28;20254;-82
2023/06/08 04:43:15;;;;;;;2.70;2.50;;;22.70;47.90;;;;;;5072111;28;20199;-81
2023/06/08 04:45:45;;;;;;;2.72;2.53;;;22.70;47.90;;;;;;5068217;28;20211;-81
2023/06/08 04:48:13;;;;;;;2.60;2.40;;;22.70;47.90;;;;;;5063777;28;20203;-81
2023/06/08 04:50:45;;;;;;;2.75;2.55;;;22.70;47.90;;;;;;5046302;28;20243;-81
2023/06/08 04:53:12;;;;;;;2.80;2.60;;;22.70;47.90;;;;;;5063932;28;20251;-81
2023/06/08 04:55:45;;;;;;;3.00;2.80;;;22.80;47.90;;;;;;5063804;28;20279;-82
2023/06/08 04:58:13;;;;;;;3.17;2.60;;;23.00;47.60;;;;;;5064569;28;20218;-82
2023/06/08 05:00:39;;;;;;;2.72;2.50;;;23.10;47.20;;;;;;5064866;28;20220;-83
2023/06/08 05:03:11;;;;;;;2.80;2.53;;;23.30;47.00;;;;;;5066046;28;20195;-82
2023/06/08 05:05:38;;;;;;;2.95;2.70;;;23.40;46.60;;;;;;5054543;28;20306;-82
2023/06/08 05:08:05;;;;;;;2.90;2.60;;;23.50;46.30;;;;;;5054370;28;20199;-82
2023/06/08 05:10:32;;;;;;;2.40;2.20;;;23.70;46.10;;;;;;5053413;28;20211;-82
2023/06/08 05:13:01;;;;;;;2.85;2.65;;;23.80;45.80;;;;;;5053569;28;20297;-82
2023/06/08 05:15:30;;;;;;;2.63;2.42;;;24.00;45.60;;;;;;5053424;28;20203;-82
2023/06/08 05:17:57;;;;;;;2.70;2.50;;;24.10;45.30;;;;;;5054086;28;20295;-82
2023/06/08 05:20:28;;;;;;;2.75;2.55;;;24.20;45.00;;;;;;5053302;28;20207;-82
2023/06/08 05:22:55;;;;;;;3.15;2.95;;;24.40;44.80;;;;;;5054405;28;20199;-82
2023/06/08 05:25:22;;;;;;;3.22;2.95;;;24.50;44.50;;;;;;5057386;28;20199;-82
2023/06/08 05:27:49;;;;;;;3.10;2.80;;;24.60;44.40;;;;;;5058294;28;20199;-82
2023/06/08 05:30:17;;;;;;;2.85;2.50;;;24.70;44.20;;;;;;5055387;28;20208;-81
2023/06/08 05:32:44;;;;;;;2.75;2.55;;;24.80;44.00;;;;;;5055976;28;20191;-82
2023/06/08 05:35:11;;;;;;;3.00;2.80;;;24.90;43.80;;;;;;5055090;28;20195;-82
2023/06/08 05:37:39;;;;;;;3.30;3.05;;;24.90;43.70;;;;;;5037796;28;20195;-82
2023/06/08 05:40:09;;;;;;;2.97;2.78;;;25.10;43.60;;;;;;5054219;28;20199;-82
2023/06/08 05:42:36;;;;;;;2.70;2.50;;;25.10;43.40;;;;;;5056805;28;20223;-81
2023/06/08 05:45:03;;;;;;;2.88;2.67;;;25.20;43.10;;;;;;5063757;22;20231;-78
2023/06/08 05:47:30;;;;;;;3.45;3.25;;;25.30;43.10;;;;;;5037467;28;20188;-78
2023/06/08 05:49:57;;;;;;;3.30;3.00;;;25.40;43.10;;;;;;5037426;28;20212;-76
2023/06/08 05:52:24;;;;;;;2.50;2.30;;;25.40;42.80;;;;;;5037291;28;20219;-76
2023/06/08 05:54:53;;;;;;;2.60;2.40;;;25.50;42.60;;;;;;5036478;28;20219;-76
2023/06/08 05:57:20;;;;;;;2.65;2.45;;;25.50;42.50;;;;;;5036358;28;20219;-76
2023/06/08 05:59:47;;;;;;;2.75;2.55;;;25.60;42.40;;;;;;5036280;28;20205;-76
2023/06/08 06:02:14;;;;;;;2.90;2.70;;;25.60;42.30;;;;;;5035840;28;20581;-78
2023/06/08 06:04:41;;;;;;;2.67;2.47;;;25.60;42.20;;;;;;5019739;28;20250;-78
2023/06/08 06:07:08;;;;;;;2.72;2.53;;;25.70;42.10;;;;;;5036262;28;20211;-78
2023/06/08 06:09:35;;;;;;;2.60;2.40;;;25.80;42.00;;;;;;5035754;28;20690;-78
2023/06/08 06:12:07;;;;;;;2.83;2.63;;;25.80;41.80;;;;;;5035848;28;20270;-77
2023/06/08 06:14:38;;;;;;;3.20;2.65;;;25.90;42.00;;;;;;5035925;28;20246;-77
2023/06/08 06:17:05;;;;;;;2.80;2.60;;;25.80;41.90;;;;;;5035586;28;20295;-77
2023/06/08 06:19:36;;;;;;;2.83;2.63;;;25.80;41.90;;;;;;5036762;28;20223;-77
2023/06/08 06:22:03;;;;;;;2.28;2.17;;;25.90;41.80;;;;;;5036219;28;20229;-77
2023/06/08 06:24:30;;;;;;;2.67;2.47;;;26.00;41.60;;;;;;5035877;28;20200;-77
2023/06/08 06:26:58;;;;;;;3.15;2.92;;;26.10;41.40;;;;;;5035572;28;20200;-77
2023/06/08 06:29:26;;;;;;;2.60;2.40;;;26.20;41.30;;;;;;5035426;28;20223;-77
2023/06/08 06:31:53;;;;;;;2.58;2.38;;;26.20;41.20;;;;;;5035254;28;20216;-77
2023/06/08 06:34:20;;;;;;;2.90;2.70;;;26.30;41.00;;;;;;5035502;28;20254;-77
2023/06/08 06:36:47;;;;;;;2.88;2.67;;;26.40;40.80;;;;;;5035367;28;20216;-77
2023/06/08 06:39:14;;;;;;;2.45;2.28;;;26.50;40.70;;;;;;5035209;28;20222;-77
2023/06/08 06:41:41;;;;;;;2.65;2.45;;;26.60;40.50;;;;;;5036373;28;20217;-77
2023/06/08 06:44:08;;;;;;;2.88;2.58;;;26.60;40.40;;;;;;5018897;28;20234;-77
2023/06/08 06:46:37;;;;;;;2.80;2.60;;;26.70;40.20;;;;;;5035330;28;20200;-77
2023/06/08 06:49:03;;;;;;;2.50;2.30;;;26.80;40.10;;;;;;5036308;28;20196;-77
2023/06/08 06:51:30;;;;;;;2.70;2.50;;;26.80;40.00;;;;;;5019800;28;20215;-77
2023/06/08 06:53:57;;;;;;;2.60;2.40;;;26.90;39.90;;;;;;5033795;28;20580;-77
2023/06/08 06:56:25;;;;;;;2.55;2.35;;;27.00;39.80;;;;;;5018792;28;20704;-77
2023/06/08 06:58:52;;;;;;;2.67;2.47;;;27.00;39.70;;;;;;5034843;28;20670;-77
2023/06/08 07:01:20;;;;;;;2.60;2.40;;;27.10;39.60;;;;;;5034925;28;20219;-77
2023/06/08 07:03:48;;;;;;;2.50;2.30;;;27.10;39.50;;;;;;5036017;28;20231;-77
2023/06/08 07:06:15;;;;;;;2.80;2.60;;;27.10;39.60;;;;;;5034785;28;20222;-77
2023/06/08 07:08:42;;;;;;;2.83;2.63;;;27.00;39.50;;;;;;5034811;28;20199;-77
2023/06/08 07:11:11;;;;;;;2.75;2.45;;;27.00;39.70;;;;;;5034965;28;20270;-77
2023/06/08 07:13:38;;;;;;;2.75;2.55;;;27.00;39.60;;;;;;5035830;28;20195;-77
2023/06/08 07:16:06;;;;;;;2.83;2.63;;;27.10;39.60;;;;;;5034624;28;20199;-77
2023/06/08 07:18:33;;;;;;;2.70;2.50;;;27.10;39.40;;;;;;5034765;28;20217;-76
2023/06/08 07:21:01;;;;;;;2.65;2.45;;;27.20;39.30;;;;;;5034514;28;20253;-77
2023/06/08 07:23:28;;;;;;;2.45;2.25;;;27.30;39.20;;;;;;5034593;28;20249;-77
2023/06/08 07:25:56;;;;;;;2.40;2.20;;;27.30;39.00;;;;;;5034687;28;20196;-77
2023/06/08 07:28:23;;;;;;;2.58;2.25;;;27.40;39.00;;;;;;5034561;28;20334;-77
2023/06/08 07:30:50;;;;;;;2.70;2.50;;;27.50;39.30;;;;;;5034799;28;20273;-77
2023/06/08 07:33:17;;;;;;;2.80;2.60;;;27.50;38.70;;;;;;5035453;28;20200;-77
2023/06/08 07:35:44;;;;;;;2.50;2.30;;;27.60;38.70;;;;;;5018547;28;20672;-77
2023/06/08 07:38:13;;;;;;;2.67;2.47;;;27.60;38.60;;;;;;5034809;28;20203;-77
2023/06/08 07:40:40;;;;;;;2.65;2.45;;;27.70;39.10;;;;;;5035064;28;20247;-77
2023/06/08 07:43:08;;;;;;;2.20;2.10;;;27.60;38.40;;;;;;5034176;28;20204;-77
2023/06/08 07:45:34;;;;;;;2.30;2.10;;;27.70;38.30;;;;;;5033956;28;20195;-77
2023/06/08 07:48:01;;;;;;;2.60;2.40;;;27.70;38.30;;;;;;5035509;28;20238;-77
2023/06/08 07:50:28;;;;;;;2.63;2.20;;;27.80;38.20;;;;;;5033908;28;20219;-77
2023/06/08 07:52:55;;;;;;;2.60;2.40;;;27.70;38.10;;;;;;5033929;28;20203;-77
2023/06/08 07:55:24;;;;;;;2.47;2.28;;;27.80;38.20;;;;;;5034349;28;20195;-77
2023/06/08 07:57:50;;;;;;;2.47;2.28;;;27.80;38.10;;;;;;5034336;28;20199;-77
2023/06/08 08:00:19;;;;;;;2.60;2.45;;;27.80;38.70;;;;;;5033930;28;20202;-77
2023/06/08 08:02:46;;;;;;;2.45;2.30;;;27.80;38.20;;;;;;5022896;28;20195;-77
2023/06/08 08:05:13;;;;;;;2.65;2.40;;;27.80;38.00;;;;;;5034822;28;20230;-76
2023/06/08 08:07:40;;;;;;;2.90;2.70;;;27.90;37.80;;;;;;5035925;28;20199;-77
2023/06/08 08:10:08;;;;;;;2.67;2.47;;;27.90;38.00;;;;;;5034998;28;20551;-78
2023/06/08 08:12:37;;;;;;;3.10;2.80;;;27.80;37.90;;;;;;5034795;28;20257;-77
2023/06/08 08:15:05;;;;;;;3.67;2.78;;;27.80;38.10;;;;;;5033632;28;20218;-76
2023/06/08 08:17:32;;;;;;;3.33;3.00;;;27.70;37.70;;;;;;5034385;28;20290;-77
2023/06/08 08:19:59;;;;;;;5.63;2.92;;;27.70;37.10;;;;;;5033526;28;20265;-77
2023/06/08 08:22:26;;;;;;;3.35;3.05;;;27.70;37.30;;;;;;5033614;28;20223;-77
2023/06/08 08:24:53;;;;;;;3.30;3.10;;;27.70;37.90;;;;;;5033592;28;20195;-76
2023/06/08 08:27:20;;;;;;;3.20;2.92;;;27.70;38.00;;;;;;5033280;28;20200;-77
2023/06/08 08:29:48;;;;;;;3.95;2.80;;;27.70;38.20;;;;;;5033382;28;20199;-77
2023/06/08 08:32:15;;;;;;;4.32;3.30;;;27.80;38.50;;;;;;5033171;28;20234;-77
2023/06/08 08:34:42;;;;;;;2.97;2.70;;;27.80;38.50;;;;;;5033126;28;20200;-77
2023/06/08 08:37:09;;;;;;;3.45;3.15;;;27.90;38.50;;;;;;5033145;28;20203;-77
2023/06/08 08:39:37;;;;;;;3.13;2.88;;;27.90;38.20;;;;;;5033040;28;20203;-77
2023/06/08 08:42:07;;;;;;;4.88;2.92;;;28.00;38.30;;;;;;5032830;28;20215;-77
2023/06/08 08:44:34;;;;;;;18.15;8.00;;;28.00;38.10;;;;;;5032546;28;20301;-77
2023/06/08 08:47:04;;;;;;;4.25;3.80;;;28.00;37.90;;;;;;5032834;28;20584;-77
2023/06/08 08:49:36;;;;;;;14.90;9.68;;;28.10;37.80;;;;;;5032998;28;20196;-77
2023/06/08 08:52:04;;;;;;;54.38;35.70;;;28.10;38.00;;;;;;5033278;28;20314;-77
2023/06/08 08:54:33;;;;;;;66.60;42.33;;;28.10;38.30;;;;;;5034673;28;20192;-78
2023/06/08 08:57:02;;;;;;;62.63;38.85;;;28.20;38.70;;;;;;5033483;28;20195;-76
2023/06/08 08:59:29;;;;;;;27.67;20.00;;;28.20;38.60;;;;;;5032822;28;20592;-76
2023/06/08 09:01:56;;;;;;;39.38;24.05;;;28.20;38.70;;;;;;5032803;28;20238;-78
2023/06/08 09:04:24;;;;;;;40.45;28.95;;;28.30;38.60;;;;;;5033470;28;20239;-78
2023/06/08 09:06:51;;;;;;;40.70;25.95;;;28.20;38.70;;;;;;5033152;28;20210;-78
2023/06/08 09:09:22;;;;;;;35.08;23.88;;;28.20;38.50;;;;;;5032835;28;20201;-77
2023/06/08 09:11:59;;;;;;;27.63;18.00;;;28.20;38.50;;;;;;5032952;28;20238;-77
2023/06/08 09:14:25;;;;;;;27.65;18.40;;;28.20;39.40;;;;;;5017962;28;20201;-78
2023/06/08 09:16:53;;;;;;;21.20;15.65;;;28.30;38.80;;;;;;5033273;28;20196;-78
2023/06/08 09:19:20;;;;;;;21.60;16.13;;;28.30;38.80;;;;;;5034051;28;20720;-78
2023/06/08 09:21:48;;;;;;;23.67;14.57;;;28.20;38.50;;;;;;5033269;28;20299;-77
2023/06/08 09:24:49;;;;;;;20.38;14.10;;;28.30;38.50;;;;;;5097612;22;20261;-81
2023/06/08 09:27:35;;;;;;;16.73;12.10;;;28.30;38.30;;;;;;5056472;28;20189;-81
2023/06/08 09:30:02;;;;;;;14.45;11.13;;;28.30;38.20;;;;;;5054028;28;20194;-82
2023/06/08 09:32:32;;;;;;;16.67;11.35;;;28.30;38.10;;;;;;5054421;28;20225;-82
2023/06/08 09:35:01;;;;;;;15.90;10.88;;;28.40;38.60;;;;;;5053242;28;20248;-82
2023/06/08 09:37:30;;;;;;;11.75;9.73;;;28.30;38.50;;;;;;5053884;28;20195;-81
2023/06/08 09:39:57;;;;;;;8.10;7.25;;;28.30;38.50;;;;;;5054811;28;20637;-82
2023/06/08 09:42:24;;;;;;;6.70;6.00;;;28.20;38.50;;;;;;5037499;28;20221;-81
2023/06/08 09:44:55;;;;;;;10.30;6.85;;;28.20;38.70;;;;;;5054512;28;20206;-82
2023/06/08 09:47:23;;;;;;;7.88;6.93;;;28.20;38.70;;;;;;5054183;28;20261;-82
2023/06/08 09:49:51;;;;;;;4.57;4.18;;;28.20;39.40;;;;;;5037638;28;20252;-81
2023/06/08 09:52:19;;;;;;;5.78;5.18;;;28.20;38.30;;;;;;5053784;28;20250;-81
2023/06/08 09:54:47;;;;;;;5.63;5.05;;;28.20;38.60;;;;;;5102230;22;20222;-77
2023/06/08 09:57:15;;;;;;;6.18;5.60;;;28.10;38.90;;;;;;5015973;28;20196;-77
2023/06/08 09:59:46;;;;;;;7.05;6.30;;;28.10;38.80;;;;;;5032840;28;20242;-77
2023/06/08 10:02:18;;;;;;;6.32;5.20;;;28.10;38.80;;;;;;5032728;28;20230;-76
2023/06/08 10:04:48;;;;;;;5.60;5.10;;;28.10;38.90;;;;;;5032472;28;20180;-76
2023/06/08 10:07:17;;;;;;;5.18;4.70;;;28.10;38.90;;;;;;5033403;28;20275;-76
2023/06/08 10:09:44;;;;;;;6.10;5.50;;;28.10;39.00;;;;;;5032359;28;20246;-76
2023/06/08 10:12:13;;;;;;;6.05;5.45;;;28.10;38.90;;;;;;5033028;28;20231;-76
2023/06/08 10:14:39;;;;;;;6.13;5.53;;;28.00;38.90;;;;;;5032309;28;20206;-76
2023/06/08 10:17:07;;;;;;;5.97;5.35;;;28.00;38.70;;;;;;5015723;28;20200;-76
2023/06/08 10:19:33;;;;;;;5.50;4.93;;;28.00;39.10;;;;;;5015859;28;20195;-76
2023/06/08 10:22:00;;;;;;;5.15;4.65;;;28.00;38.90;;;;;;5031891;28;20315;-76
2023/06/08 10:24:27;;;;;;;5.57;5.07;;;28.00;39.00;;;;;;5032147;28;20198;-76
2023/06/08 10:27:08;;;;;;;4.95;4.55;;;27.90;38.90;;;;;;5031965;28;20227;-74
2023/06/08 10:29:37;;;;;;;6.05;4.82;;;27.90;38.70;;;;;;5035593;28;20622;-75
2023/06/08 10:32:07;;;;;;;5.60;4.47;;;27.90;38.90;;;;;;5019203;28;20223;-75
2023/06/08 10:34:38;;;;;;;5.13;4.50;;;27.90;38.90;;;;;;5035914;28;20642;-75
2023/06/08 10:37:05;;;;;;;4.53;4.13;;;27.90;38.70;;;;;;5036215;28;20401;-75
2023/06/08 10:39:46;;;;;;;5.10;4.60;;;27.80;38.50;;;;;;5037257;28;20266;-75
2023/06/08 10:42:15;;;;;;;4.88;4.47;;;27.80;38.30;;;;;;5036757;28;20660;-75
2023/06/08 10:44:44;;;;;;;5.00;4.60;;;27.70;38.50;;;;;;5035309;28;20200;-75
2023/06/08 10:47:13;;;;;;;4.38;3.97;;;27.70;38.70;;;;;;5036117;28;20306;-76
2023/06/08 10:49:41;;;;;;;4.80;4.35;;;27.70;38.60;;;;;;5035246;28;20198;-76
2023/06/08 10:52:09;;;;;;;4.85;4.40;;;27.60;38.70;;;;;;5035526;28;20269;-76
2023/06/08 10:54:47;;;;;;;4.53;4.15;;;27.60;38.80;;;;;;5034942;28;20221;-76
2023/06/08 10:57:14;;;;;;;4.63;4.28;;;27.50;38.80;;;;;;5035034;28;20187;-76
2023/06/08 10:59:41;;;;;;;4.82;4.43;;;27.50;38.60;;;;;;5034725;28;20203;-76
2023/06/08 11:02:10;;;;;;;4.78;4.00;;;27.50;38.80;;;;;;5035177;28;20273;-76
2023/06/08 11:04:37;;;;;;;4.75;4.00;;;27.50;38.90;;;;;;5034725;28;20206;-76
2023/06/08 11:07:06;;;;;;;4.43;4.13;;;27.50;38.70;;;;;;5034833;28;20202;-75
2023/06/08 11:09:34;;;;;;;4.55;4.25;;;27.50;38.90;;;;;;5034879;28;20199;-75
2023/06/08 11:12:01;;;;;;;4.78;4.38;;;27.50;38.90;;;;;;5033636;28;20477;-75
2023/06/08 11:14:28;;;;;;;4.68;4.20;;;27.40;39.00;;;;;;5035753;28;20195;-75
2023/06/08 11:16:56;;;;;;;4.60;4.20;;;27.40;40.20;;;;;;5034619;28;20728;-75
2023/06/08 11:19:24;;;;;;;4.85;4.30;;;27.40;39.70;;;;;;5034593;28;20579;-75
2023/06/08 11:21:53;;;;;;;5.38;4.45;;;27.40;39.70;;;;;;5034861;28;20215;-76
2023/06/08 11:24:21;;;;;;;4.88;4.47;;;27.40;40.00;;;;;;5034840;28;20196;-76
2023/06/08 11:26:48;;;;;;;5.05;4.65;;;27.50;39.90;;;;;;5043703;28;20203;-76
2023/06/08 11:29:15;;;;;;;5.85;4.43;;;27.50;39.80;;;;;;5019242;28;20254;-76
2023/06/08 11:31:42;;;;;;;5.68;4.88;;;27.50;39.10;;;;;;5038007;28;20219;-76
2023/06/08 11:34:13;;;;;;;5.10;4.70;;;27.60;39.20;;;;;;5035615;28;20206;-76
2023/06/08 11:36:42;;;;;;;4.93;4.53;;;27.60;39.30;;;;;;5034951;28;20196;-76
2023/06/08 11:39:09;;;;;;;5.35;4.90;;;27.60;39.50;;;;;;5033927;28;20199;-76
2023/06/08 11:41:36;;;;;;;4.90;4.50;;;27.50;39.10;;;;;;5034193;28;20215;-76
2023/06/08 11:44:03;;;;;;;4.97;4.57;;;27.50;39.30;;;;;;5035856;28;20188;-76
2023/06/08 11:46:30;;;;;;;4.82;4.43;;;27.50;39.70;;;;;;5017833;28;20261;-76
2023/06/08 11:49:10;;;;;;;4.85;4.45;;;27.50;39.90;;;;;;5035077;28;20200;-75
2023/06/08 11:51:48;;;;;;;5.00;4.60;;;27.50;40.00;;;;;;5035098;28;20226;-75
2023/06/08 11:54:15;;;;;;;5.05;4.65;;;27.40;39.80;;;;;;5034042;28;20522;-75
2023/06/08 11:56:45;;;;;;;4.95;4.55;;;27.40;40.10;;;;;;5035412;28;20212;-75
2023/06/08 11:59:13;;;;;;;5.18;4.70;;;27.40;40.20;;;;;;5034367;28;20294;-74
2023/06/08 12:01:55;;;;;;;5.35;4.95;;;27.40;39.70;;;;;;5033807;28;20215;-75
2023/06/08 12:04:29;;;;;;;4.72;4.38;;;27.40;40.00;;;;;;5035428;28;20210;-74
2023/06/08 12:06:58;;;;;;;5.47;4.97;;;27.30;39.80;;;;;;5034864;28;20241;-74
2023/06/08 12:09:25;;;;;;;4.88;4.57;;;27.30;39.80;;;;;;5033499;28;20676;-74
2023/06/08 12:11:52;;;;;;;4.82;4.47;;;27.30;39.90;;;;;;5033782;28;20215;-74
2023/06/08 12:14:19;;;;;;;5.25;4.72;;;27.30;39.90;;;;;;5033586;28;20348;-74
2023/06/08 12:16:46;;;;;;;5.05;4.68;;;27.30;40.10;;;;;;5033716;28;20203;-74
2023/06/08 12:19:13;;;;;;;4.68;4.38;;;27.20;40.20;;;;;;5153976;22;20320;-79
2023/06/08 12:21:40;;;;;;;4.85;4.45;;;27.20;40.40;;;;;;5057187;28;20221;-79
2023/06/08 12:24:11;;;;;;;4.93;4.53;;;27.20;40.60;;;;;;5041430;28;20301;-79
2023/06/08 12:26:38;;;;;;;4.70;4.28;;;27.10;40.70;;;;;;5061072;28;20297;-80
2023/06/08 12:29:05;;;;;;;5.20;4.80;;;27.10;40.80;;;;;;5059583;28;20194;-80
2023/06/08 12:31:33;;;;;;;4.88;4.38;;;27.10;40.90;;;;;;5061611;28;20211;-81
2023/06/08 12:34:00;;;;;;;5.65;5.15;;;27.00;41.20;;;;;;5060378;28;20202;-81
2023/06/08 12:36:27;;;;;;;6.70;5.07;;;26.90;41.20;;;;;;5056563;28;20226;-81
2023/06/08 12:38:55;;;;;;;4.93;4.50;;;26.90;41.40;;;;;;5057165;28;20248;-81
2023/06/08 12:41:24;;;;;;;6.78;4.75;;;26.90;41.30;;;;;;5058038;28;20562;-80
2023/06/08 12:43:51;;;;;;;6.45;4.65;;;26.90;43.30;;;;;;5057707;28;20244;-80
2023/06/08 12:46:19;;;;;;;5.80;4.25;;;26.80;43.80;;;;;;5059712;28;20238;-81
2023/06/08 12:48:48;;;;;;;5.57;4.57;;;26.70;42.70;;;;;;5165631;22;20201;-76
2023/06/08 12:51:14;;;;;;;8.18;4.88;;;26.70;42.70;;;;;;5032465;28;20223;-76
2023/06/08 12:53:42;;;;;;;7.72;4.45;;;26.70;43.00;;;;;;5033141;28;20249;-75